KIJX/IJX METAR and TAF weather

Enter ICAO airport designator
Station Type Date Time Source
KIJX METAR 2019/10/14 06:15 UTC NOAA

KIJX 140615Z AUTO 00000KT 10SM CLR 03/01 A3003 RMK AO2 T00250006


Station Type Date Time Source
KIJX Decoded METAR 2019/10/14 06:15 UTC NOAA

Jacksonville, Jacksonville Municipal Airport, IL, United States (KIJX) 39-46-27N 090-14-19W
Oct 14, 2019 - 02:15 AM EDT / 2019.10.14 0615 UTC
Wind: Calm:0
Visibility: 10 mile(s):0
Sky conditions: clear
Temperature: 36.5 F (2.5 C)
Dew Point: 33.1 F (0.6 C)
Relative Humidity: 87%
Pressure (altimeter): 30.03 in. Hg (1016 hPa)
ob: KIJX 140615Z AUTO 00000KT 10SM CLR 03/01 A3003 RMK AO2 T00250006
cycle: 6

Station Type Date Time Source
KIJX TAF UTC NOAA

Error!

Example: see airport list